Time;durP1;ratioP1;P1;durP2;ratioP2;P2;SDS_P1;SDS_P2;PMS_P1;PMS_P2;Temp;Humidity;BMP_temperature;BMP_pressure;BME280_temperature;BME280_humidity;BME280_pressure;Samples;Min_cycle;Max_cycle;Signal;HPM_P1;HPM_P2
2021/05/23 00:01:38;;;;;;;1.67;1.13;;;;;;;14.99;57.30;95220.13;4958137;28;20216;-83
2021/05/23 00:04:07;;;;;;;2.97;1.40;;;;;;;14.98;57.94;95216.72;4953065;29;20196;-87
2021/05/23 00:06:34;;;;;;;1.93;1.30;;;;;;;15.04;57.16;95213.28;4955619;29;20209;-88
2021/05/23 00:09:00;;;;;;;2.77;1.30;;;;;;;15.06;57.31;95218.25;4954869;29;20279;-86
2021/05/23 00:11:26;;;;;;;1.53;1.20;;;;;;;15.07;56.93;95212.84;4954126;29;20209;-86
2021/05/23 00:13:52;;;;;;;1.33;1.07;;;;;;;15.08;57.48;95214.44;4953959;29;20208;-88
2021/05/23 00:16:23;;;;;;;3.13;1.20;;;;;;;15.05;58.43;95227.03;4954220;29;20232;-86
2021/05/23 00:18:53;;;;;;;2.00;1.00;;;;;;;15.08;57.88;95224.81;4954244;29;20200;-85
2021/05/23 00:21:22;;;;;;;3.27;1.50;;;;;;;15.12;58.04;95235.56;4954035;29;20205;-87
2021/05/23 00:23:49;;;;;;;2.90;1.37;;;;;;;15.09;58.68;95239.34;4953941;29;20244;-88
2021/05/23 00:26:15;;;;;;;2.23;1.30;;;;;;;15.09;58.21;95238.56;4953709;29;20201;-87
2021/05/23 00:28:42;;;;;;;1.37;1.13;;;;;;;15.11;58.35;95239.94;4953812;29;20205;-88
2021/05/23 00:31:11;;;;;;;2.50;1.23;;;;;;;15.09;59.02;95247.13;4954542;29;20205;-88
2021/05/23 00:33:37;;;;;;;1.50;1.40;;;;;;;15.02;58.37;95248.97;4952346;29;20233;-83
2021/05/23 00:36:04;;;;;;;1.30;1.20;;;;;;;15.02;59.27;95243.81;4961437;28;20248;-87
2021/05/23 00:38:30;;;;;;;2.40;1.00;;;;;;;15.01;59.25;95251.81;4953825;29;20205;-85
2021/05/23 00:40:57;;;;;;;1.70;1.33;;;;;;;15.03;59.74;95258.34;4952811;29;20197;-86
2021/05/23 00:43:24;;;;;;;1.30;1.13;;;;;;;15.01;59.84;95257.00;4953591;29;20257;-88
2021/05/23 00:45:50;;;;;;;3.10;1.30;;;;;;;14.99;60.34;95266.78;4953691;29;20211;-88
2021/05/23 00:48:17;;;;;;;1.43;1.20;;;;;;;14.91;60.27;95265.22;4953968;29;20204;-86
2021/05/23 00:50:45;;;;;;;1.07;1.00;;;;;;;14.96;59.61;95272.38;4953775;29;20239;-83
2021/05/23 00:53:11;;;;;;;1.43;1.30;;;;;;;14.89;61.02;95269.03;4952859;29;20220;-83
2021/05/23 00:55:39;;;;;;;1.63;1.27;;;;;;;14.82;60.86;95266.47;4954086;29;20299;-89
2021/05/23 00:58:07;;;;;;;1.77;1.30;;;;;;;14.84;60.83;95272.25;4953394;29;20200;-87
2021/05/23 01:01:06;;;;;;;1.20;1.10;;;;;;;14.72;62.00;95269.56;4953875;29;20201;-85
2021/05/23 01:03:53;;;;;;;1.80;0.97;;;;;;;14.44;57.69;95264.72;4938688;29;20227;-87
2021/05/23 01:06:19;;;;;;;1.97;1.07;;;;;;;14.44;59.32;95269.91;4954224;29;20256;-88
2021/05/23 01:08:45;;;;;;;0.93;0.90;;;;;;;14.54;58.34;95282.44;4953173;29;20197;-84
2021/05/23 01:12:00;;;;;;;2.30;1.00;;;;;;;14.57;63.30;95282.00;4953756;29;20209;-86
2021/05/23 01:14:49;;;;;;;1.40;1.10;;;;;;;14.61;63.76;95279.81;4952855;29;20205;-85
2021/05/23 01:17:18;;;;;;;1.90;1.40;;;;;;;14.56;63.33;95280.44;4953364;29;20260;-87
2021/05/23 01:20:03;;;;;;;1.23;1.00;;;;;;;14.58;63.71;95272.44;4952768;29;20197;-87
2021/05/23 01:22:36;;;;;;;1.87;1.30;;;;;;;14.57;63.67;95266.47;4953004;29;20225;-87
2021/05/23 01:25:06;;;;;;;2.07;1.10;;;;;;;14.56;64.16;95261.50;4952328;29;20217;-87
2021/05/23 01:27:35;;;;;;;1.77;1.30;;;;;;;14.52;63.70;95261.13;4953979;29;20205;-85
2021/05/23 01:30:03;;;;;;;2.37;1.23;;;;;;;14.46;64.62;95256.75;4952725;29;20336;-84
2021/05/23 01:32:29;;;;;;;1.60;1.33;;;;;;;14.45;64.04;95258.56;4951769;29;20232;-86
2021/05/23 01:34:59;;;;;;;1.80;1.10;;;;;;;14.44;64.79;95254.38;4958406;28;20200;-86
2021/05/23 01:37:26;;;;;;;1.47;1.23;;;;;;;14.38;63.85;95257.00;4972118;28;20204;-87
2021/05/23 01:39:52;;;;;;;1.30;1.20;;;;;;;14.32;64.22;95256.00;4958102;28;20204;-84
2021/05/23 01:42:21;;;;;;;1.70;1.20;;;;;;;14.36;63.98;95261.56;4955399;29;20224;-87
2021/05/23 01:44:47;;;;;;;1.97;1.43;;;;;;;14.33;64.88;95257.59;4956644;29;20673;-87
2021/05/23 01:47:13;;;;;;;3.07;1.30;;;;;;;14.34;65.03;95263.56;4957298;29;20886;-86
2021/05/23 01:49:39;;;;;;;1.73;1.40;;;;;;;14.30;64.98;95265.78;4957166;29;20639;-87
2021/05/23 01:52:05;;;;;;;1.50;1.40;;;;;;;14.34;64.99;95261.78;4956584;29;20236;-88
2021/05/23 01:54:31;;;;;;;1.30;1.20;;;;;;;14.37;64.67;95258.78;4956209;29;20248;-83
2021/05/23 01:56:57;;;;;;;1.77;1.17;;;;;;;14.34;65.45;95264.38;4956298;29;20201;-87
2021/05/23 01:59:24;;;;;;;1.43;1.33;;;;;;;14.30;65.71;95268.38;4956803;29;20220;-87
2021/05/23 02:01:50;;;;;;;2.03;1.20;;;;;;;14.36;65.65;95269.34;4962047;28;20220;-86
2021/05/23 02:04:17;;;;;;;3.63;1.37;;;;;;;14.37;66.15;95270.94;4966967;28;20200;-85
2021/05/23 02:06:43;;;;;;;3.07;1.20;;;;;;;14.38;66.15;95275.13;4956225;29;20293;-86
2021/05/23 02:09:09;;;;;;;1.20;1.10;;;;;;;14.35;66.52;95268.56;4956254;29;20275;-85
2021/05/23 02:11:35;;;;;;;1.00;1.00;;;;;;;14.25;66.87;95270.78;4956228;29;20204;-83
2021/05/23 02:14:01;;;;;;;1.20;1.00;;;;;;;14.21;67.10;95271.41;4956169;29;20199;-85
2021/05/23 02:16:32;;;;;;;1.47;1.00;;;;;;;14.28;66.95;95277.34;4955940;29;20208;-87
2021/05/23 02:18:58;;;;;;;1.17;1.07;;;;;;;14.32;66.66;95287.09;4955695;29;20189;-84
2021/05/23 02:21:24;;;;;;;1.23;1.00;;;;;;;14.29;67.41;95295.25;4955645;29;20287;-86
2021/05/23 02:23:52;;;;;;;1.30;1.20;;;;;;;14.27;67.83;95294.69;4955921;29;20225;-87
2021/05/23 02:26:18;;;;;;;1.23;1.00;;;;;;;14.17;68.72;95291.75;4956506;29;20212;-89
2021/05/23 02:28:44;;;;;;;1.23;1.07;;;;;;;14.15;67.88;95298.91;4955729;29;20197;-88
2021/05/23 02:31:10;;;;;;;2.47;1.70;;;;;;;14.10;68.67;95309.88;4956514;29;20197;-85
2021/05/23 02:33:37;;;;;;;1.00;1.00;;;;;;;14.07;69.00;95310.28;4954966;29;20244;-84
2021/05/23 02:36:04;;;;;;;1.53;1.20;;;;;;;14.07;69.74;95307.69;4970625;28;20272;-86
2021/05/23 02:38:30;;;;;;;1.20;1.10;;;;;;;14.06;70.34;95310.50;4975516;28;20208;-87
2021/05/23 02:40:57;;;;;;;2.00;1.30;;;;;;;14.04;70.69;95308.13;4958349;28;20631;-82
2021/05/23 02:43:23;;;;;;;1.27;1.17;;;;;;;14.00;69.85;95312.13;4955293;29;20231;-85
2021/05/23 02:45:50;;;;;;;1.30;1.20;;;;;;;13.98;70.34;95323.69;4955931;29;20233;-86
2021/05/23 02:48:17;;;;;;;1.40;1.30;;;;;;;13.93;70.51;95326.88;4954588;29;20216;-87
2021/05/23 02:50:46;;;;;;;1.30;1.20;;;;;;;13.83;71.19;95344.63;4954387;29;20221;-83
2021/05/23 02:53:13;;;;;;;3.13;1.40;;;;;;;13.77;71.56;95353.97;4954402;28;20229;-83
2021/05/23 02:55:42;;;;;;;1.60;1.40;;;;;;;13.70;71.72;95370.50;4953782;29;20209;-87
2021/05/23 02:58:08;;;;;;;3.20;1.30;;;;;;;13.64;71.57;95366.94;4954493;29;20211;-88
2021/05/23 03:00:35;;;;;;;3.73;1.47;;;;;;;13.48;71.77;95375.09;4954703;29;20203;-87
2021/05/23 03:03:01;;;;;;;1.60;1.10;;;;;;;13.26;69.56;95379.69;4969241;28;20224;-86
2021/05/23 03:05:27;;;;;;;2.10;1.20;;;;;;;13.13;69.98;95379.63;4962955;28;20209;-84
2021/05/23 03:07:56;;;;;;;2.80;1.20;;;;;;;13.09;69.75;95381.78;4953915;29;20216;-86
2021/05/23 03:10:24;;;;;;;2.87;1.40;;;;;;;13.00;69.95;95390.72;4953721;29;20221;-84
2021/05/23 03:12:51;;;;;;;2.00;1.20;;;;;;;13.05;70.39;95400.50;4953595;29;20221;-86
2021/05/23 03:15:20;;;;;;;1.57;1.30;;;;;;;13.00;70.74;95398.50;4954120;29;20566;-87
2021/05/23 03:17:46;;;;;;;1.13;0.97;;;;;;;12.92;70.82;95403.03;4954116;29;20208;-84
2021/05/23 03:20:15;;;;;;;1.53;1.43;;;;;;;12.98;71.10;95408.22;4953006;29;20701;-84
2021/05/23 03:22:42;;;;;;;1.93;1.10;;;;;;;12.89;71.27;95406.81;4953260;29;20617;-86
2021/05/23 03:25:11;;;;;;;1.77;1.27;;;;;;;12.87;71.94;95413.97;4953073;29;20193;-85
2021/05/23 03:27:38;;;;;;;1.40;1.13;;;;;;;12.92;71.17;95421.91;4953219;29;20588;-84
2021/05/23 03:30:08;;;;;;;2.00;1.40;;;;;;;13.00;71.01;95431.28;4953088;29;20221;-87
2021/05/23 03:32:34;;;;;;;1.30;1.10;;;;;;;12.91;72.71;95433.25;4952265;29;20237;-87
2021/05/23 03:35:00;;;;;;;1.87;1.40;;;;;;;12.83;72.39;95435.22;4959201;28;20631;-84
2021/05/23 03:37:26;;;;;;;1.83;1.20;;;;;;;12.79;72.31;95435.59;4972941;28;20255;-84
2021/05/23 03:39:52;;;;;;;1.20;1.10;;;;;;;12.76;72.26;95442.94;4963938;28;20204;-85
2021/05/23 03:42:20;;;;;;;2.33;1.30;;;;;;;12.81;71.86;95430.25;4952551;29;20709;-87
2021/05/23 03:44:46;;;;;;;2.27;1.30;;;;;;;12.71;73.07;95440.13;4952667;29;20205;-84
2021/05/23 03:47:12;;;;;;;1.30;1.10;;;;;;;12.71;72.33;95440.91;4953171;29;20295;-87
2021/05/23 03:49:38;;;;;;;1.40;1.00;;;;;;;12.67;73.24;95444.91;4952460;29;20223;-83
2021/05/23 03:52:05;;;;;;;1.60;1.00;;;;;;;12.63;73.55;95453.22;4953190;29;20283;-83
2021/05/23 03:54:31;;;;;;;2.20;1.23;;;;;;;12.64;74.66;95450.44;4953120;29;20207;-84
2021/05/23 03:56:57;;;;;;;1.30;1.00;;;;;;;12.63;73.95;95446.28;4953230;29;20215;-83
2021/05/23 03:59:24;;;;;;;2.77;0.97;;;;;;;12.58;75.64;95453.00;4953176;29;21738;-87
2021/05/23 04:01:51;;;;;;;0.90;0.73;;;;;;;12.53;75.33;95445.00;4959463;28;20729;-85
2021/05/23 04:04:17;;;;;;;1.43;0.90;;;;;;;12.56;75.04;95447.22;4970211;28;20200;-86
2021/05/23 04:06:43;;;;;;;1.03;0.80;;;;;;;12.58;75.33;95453.78;4952818;29;20688;-84
2021/05/23 04:09:09;;;;;;;0.70;0.70;;;;;;;12.64;75.60;95455.63;4952620;29;20720;-85
2021/05/23 04:11:38;;;;;;;1.47;0.80;;;;;;;12.53;76.13;95460.50;4951770;29;20201;-88
2021/05/23 04:14:04;;;;;;;0.60;0.60;;;;;;;12.59;75.55;95460.56;4952415;29;20197;-85
2021/05/23 04:16:31;;;;;;;0.70;0.70;;;;;;;12.55;74.56;95469.66;4952173;29;20267;-86
2021/05/23 04:18:57;;;;;;;1.00;0.90;;;;;;;12.55;74.63;95467.06;4952224;29;20248;-83
2021/05/23 04:21:23;;;;;;;0.60;0.60;;;;;;;12.43;75.03;95473.78;4952245;29;20212;-87
2021/05/23 04:23:49;;;;;;;0.80;0.80;;;;;;;12.40;74.25;95474.16;4952328;29;20856;-85
2021/05/23 04:26:15;;;;;;;0.80;0.80;;;;;;;12.30;77.58;95482.25;4951901;29;20241;-86
2021/05/23 04:28:41;;;;;;;0.93;0.70;;;;;;;12.26;76.26;95482.81;4952235;29;20212;-87
2021/05/23 04:31:07;;;;;;;0.53;0.50;;;;;;;12.20;76.26;95491.31;4951729;29;20221;-83
2021/05/23 04:33:33;;;;;;;0.60;0.60;;;;;;;12.20;74.54;95499.06;4950486;29;20256;-88
2021/05/23 04:35:59;;;;;;;0.73;0.73;;;;;;;12.01;74.50;95498.72;4966924;28;20200;-85
2021/05/23 04:38:25;;;;;;;1.73;0.60;;;;;;;11.97;77.16;95507.81;4973507;28;20256;-88
2021/05/23 04:40:51;;;;;;;0.60;0.60;;;;;;;12.04;75.85;95503.50;4954153;28;20201;-86
2021/05/23 04:43:17;;;;;;;0.60;0.60;;;;;;;12.06;75.63;95498.97;4952773;29;20224;-85
2021/05/23 04:45:43;;;;;;;0.67;0.57;;;;;;;11.87;76.21;95498.81;4952166;29;20287;-84
2021/05/23 04:48:10;;;;;;;0.63;0.63;;;;;;;11.90;76.63;95501.81;4952338;29;20260;-85
2021/05/23 04:50:37;;;;;;;0.63;0.60;;;;;;;11.86;76.31;95513.50;4953296;29;20231;-87
2021/05/23 04:53:03;;;;;;;2.30;0.80;;;;;;;11.75;77.46;95516.53;4952464;29;20271;-84
2021/05/23 04:55:29;;;;;;;0.60;0.60;;;;;;;11.82;76.96;95517.41;4953276;29;20689;-88
2021/05/23 04:57:55;;;;;;;0.60;0.60;;;;;;;11.89;76.99;95512.31;4953122;29;20211;-88
2021/05/23 05:00:22;;;;;;;0.70;0.63;;;;;;;11.86;75.86;95517.84;4953093;29;20204;-87
2021/05/23 05:02:49;;;;;;;0.70;0.70;;;;;;;11.86;76.64;95528.16;4967939;28;20282;-83
2021/05/23 05:05:15;;;;;;;0.60;0.60;;;;;;;11.83;76.05;95531.13;4966756;28;20193;-84
2021/05/23 05:07:43;;;;;;;1.23;0.80;;;;;;;11.87;76.16;95533.16;4952881;29;20235;-84
2021/05/23 05:10:10;;;;;;;0.60;0.60;;;;;;;11.89;76.21;95522.66;4953035;29;20240;-84
2021/05/23 05:12:36;;;;;;;0.60;0.60;;;;;;;11.87;75.90;95527.19;4952326;29;20224;-83
2021/05/23 05:15:03;;;;;;;0.90;0.80;;;;;;;11.82;76.77;95538.06;4951999;28;20211;-85
2021/05/23 05:17:29;;;;;;;0.50;0.50;;;;;;;11.77;75.00;95536.03;4955443;29;20204;-88
2021/05/23 05:19:55;;;;;;;1.23;0.60;;;;;;;11.80;74.90;95544.38;4956510;29;20201;-87
2021/05/23 05:22:21;;;;;;;0.50;0.50;;;;;;;11.74;75.20;95545.88;4955651;29;20232;-87
2021/05/23 05:24:48;;;;;;;1.60;0.60;;;;;;;11.81;75.30;95557.09;4956081;29;20205;-88
2021/05/23 05:27:14;;;;;;;1.13;0.57;;;;;;;11.92;75.37;95564.34;4956488;29;20634;-88
2021/05/23 05:29:40;;;;;;;0.60;0.60;;;;;;;11.95;75.34;95563.97;4956662;29;20261;-86
2021/05/23 05:32:06;;;;;;;0.50;0.50;;;;;;;11.80;74.24;95562.44;4955202;29;20244;-86
2021/05/23 05:34:32;;;;;;;0.63;0.63;;;;;;;11.86;75.11;95564.28;4956716;28;20204;-86
2021/05/23 05:36:58;;;;;;;0.50;0.50;;;;;;;11.80;73.08;95570.19;4955269;29;20205;-88
2021/05/23 05:39:24;;;;;;;0.70;0.70;;;;;;;11.80;73.84;95568.41;4955725;29;20212;-85
2021/05/23 05:41:51;;;;;;;0.47;0.47;;;;;;;11.74;73.16;95571.66;4955269;29;20307;-85
2021/05/23 05:44:17;;;;;;;2.37;2.17;;;;;;;11.58;73.34;95572.72;4955298;29;20225;-86
2021/05/23 05:46:43;;;;;;;1.47;1.07;;;;;;;11.56;73.71;95584.97;4957008;29;20196;-86
2021/05/23 05:49:09;;;;;;;0.60;0.60;;;;;;;11.45;74.02;95582.88;4957319;29;20196;-87
2021/05/23 05:51:34;;;;;;;0.50;0.50;;;;;;;11.46;74.97;95594.00;4955830;29;20197;-87
2021/05/23 05:54:01;;;;;;;0.50;0.50;;;;;;;11.29;74.72;95596.78;4957629;29;20240;-87
2021/05/23 05:56:27;;;;;;;0.50;0.50;;;;;;;11.40;75.15;95598.91;4957903;29;20839;-86
2021/05/23 05:58:53;;;;;;;0.40;0.40;;;;;;;11.31;74.47;95610.31;4958228;29;20212;-88
2021/05/23 06:01:19;;;;;;;0.47;0.47;;;;;;;11.42;75.88;95609.81;4958302;29;20216;-84
2021/05/23 06:03:45;;;;;;;0.40;0.40;;;;;;;11.35;75.20;95601.22;4956988;29;20229;-87
2021/05/23 06:06:14;;;;;;;0.70;0.70;;;;;;;11.40;75.14;95616.13;4956800;29;20193;-86
2021/05/23 06:08:40;;;;;;;0.60;0.60;;;;;;;11.25;75.47;95617.94;4956609;29;20208;-85
2021/05/23 06:11:09;;;;;;;0.50;0.50;;;;;;;11.35;75.44;95624.41;4956463;29;20244;-85
2021/05/23 06:13:35;;;;;;;0.50;0.50;;;;;;;11.37;75.48;95624.22;4952525;29;20763;-87
2021/05/23 06:16:01;;;;;;;1.00;0.60;;;;;;;11.50;75.24;95629.56;4955839;29;20212;-87
2021/05/23 06:18:27;;;;;;;0.60;0.60;;;;;;;11.45;74.82;95631.06;4955622;29;20204;-85
2021/05/23 06:20:54;;;;;;;0.97;0.60;;;;;;;11.52;75.18;95639.69;4955328;29;20204;-86
2021/05/23 06:23:21;;;;;;;3.43;1.30;;;;;;;11.36;75.87;95628.59;4956042;29;20313;-85
2021/05/23 06:25:47;;;;;;;1.20;1.10;;;;;;;11.36;76.64;95643.25;4949171;29;20198;-86
2021/05/23 06:28:14;;;;;;;0.57;0.57;;;;;;;11.26;76.34;95648.69;4954232;28;20715;-85
2021/05/23 06:30:40;;;;;;;0.50;0.50;;;;;;;11.36;77.31;95659.50;4956140;29;20227;-85
2021/05/23 06:33:07;;;;;;;0.50;0.50;;;;;;;11.36;77.78;95663.88;4955454;28;20243;-85
2021/05/23 06:35:34;;;;;;;0.50;0.50;;;;;;;11.37;76.84;95665.47;4956312;29;20237;-87
2021/05/23 06:38:00;;;;;;;0.63;0.50;;;;;;;11.28;77.53;95669.13;4954826;29;20213;-86
2021/05/23 06:40:26;;;;;;;0.50;0.50;;;;;;;11.31;76.39;95671.38;4955747;29;20197;-85
2021/05/23 06:42:52;;;;;;;0.60;0.47;;;;;;;11.44;77.30;95674.09;4955132;29;20363;-85
2021/05/23 06:45:18;;;;;;;0.50;0.50;;;;;;;11.40;77.75;95668.50;4956318;29;20751;-83
2021/05/23 06:47:44;;;;;;;0.50;0.50;;;;;;;11.41;78.78;95680.41;4956130;29;20295;-83
2021/05/23 06:50:11;;;;;;;0.53;0.53;;;;;;;11.51;77.83;95685.31;4955086;29;20311;-83
2021/05/23 06:52:37;;;;;;;0.50;0.50;;;;;;;11.51;78.21;95675.00;4955103;29;20225;-85
2021/05/23 06:55:07;;;;;;;1.33;1.23;;;;;;;11.57;78.39;95681.19;4955203;29;20209;-85
2021/05/23 06:57:33;;;;;;;4.40;4.00;;;;;;;11.59;77.20;95694.72;4955521;29;20260;-87
2021/05/23 06:59:59;;;;;;;2.77;2.53;;;;;;;11.58;78.06;95693.91;4954053;29;20200;-84
2021/05/23 07:02:27;;;;;;;1.13;0.90;;;;;;;11.63;77.42;95693.38;4954996;29;20801;-84
2021/05/23 07:04:53;;;;;;;0.73;0.70;;;;;;;11.59;77.56;95702.44;4955237;29;20205;-83
2021/05/23 07:07:19;;;;;;;1.53;0.60;;;;;;;11.65;77.54;95706.88;4954672;29;20524;-82
2021/05/23 07:09:46;;;;;;;0.50;0.50;;;;;;;11.59;78.28;95707.59;4954416;29;20233;-86
2021/05/23 07:12:12;;;;;;;0.50;0.50;;;;;;;11.50;77.46;95708.69;4954771;29;20233;-86
2021/05/23 07:14:38;;;;;;;0.70;0.70;;;;;;;11.41;78.30;95708.78;4955002;29;20716;-87
2021/05/23 07:17:04;;;;;;;0.60;0.60;;;;;;;11.24;79.36;95711.69;4955212;29;20581;-88
2021/05/23 07:19:30;;;;;;;0.53;0.53;;;;;;;11.18;79.92;95720.94;4955486;29;20200;-86
2021/05/23 07:21:56;;;;;;;0.93;0.70;;;;;;;11.18;81.67;95733.00;4955237;29;20656;-84
2021/05/23 07:24:23;;;;;;;1.00;0.90;;;;;;;11.25;82.03;95737.31;4954770;29;20223;-87
2021/05/23 07:26:49;;;;;;;0.60;0.60;;;;;;;11.17;81.71;95744.31;4955255;29;20224;-86
2021/05/23 07:29:15;;;;;;;0.57;0.57;;;;;;;11.19;81.37;95748.31;4953900;29;20205;-84
2021/05/23 07:31:41;;;;;;;0.60;0.53;;;;;;;11.17;81.25;95744.31;4954375;29;20643;-83
2021/05/23 07:34:07;;;;;;;1.80;0.60;;;;;;;11.25;80.20;95749.38;4954757;29;20229;-87
2021/05/23 07:36:33;;;;;;;0.77;0.50;;;;;;;11.31;80.74;95744.34;4954842;29;20220;-86
2021/05/23 07:38:59;;;;;;;0.80;0.60;;;;;;;11.36;80.78;95746.34;4953133;28;20792;-83
2021/05/23 07:41:26;;;;;;;0.50;0.50;;;;;;;11.37;79.56;95745.38;4954403;29;20232;-86
2021/05/23 07:43:52;;;;;;;2.53;2.20;;;;;;;11.41;79.98;95747.44;4953692;29;20221;-84
2021/05/23 07:46:17;;;;;;;1.00;0.90;;;;;;;11.36;79.34;95748.94;4954141;29;20251;-86
2021/05/23 07:48:43;;;;;;;0.53;0.53;;;;;;;11.46;79.05;95754.66;4954085;29;20260;-83
2021/05/23 07:51:10;;;;;;;0.60;0.60;;;;;;;11.56;78.67;95744.84;4954135;29;20225;-87
2021/05/23 07:53:36;;;;;;;1.13;0.60;;;;;;;11.63;79.84;95755.28;4953530;28;20315;-83
2021/05/23 07:56:02;;;;;;;0.50;0.50;;;;;;;11.72;79.71;95755.00;4954132;29;20205;-87
2021/05/23 07:58:30;;;;;;;1.60;0.60;;;;;;;11.71;79.86;95748.25;4953977;29;20291;-88
2021/05/23 08:00:56;;;;;;;5.23;4.53;;;;;;;11.75;79.23;95759.78;4953851;29;20221;-88
2021/05/23 08:03:23;;;;;;;1.63;0.90;;;;;;;11.77;79.68;95765.59;4953544;29;20225;-88
2021/05/23 08:05:49;;;;;;;0.60;0.60;;;;;;;11.90;79.35;95754.66;4954010;29;20224;-85
2021/05/23 08:08:17;;;;;;;0.50;0.50;;;;;;;12.04;77.96;95753.84;4954022;29;20271;-83
2021/05/23 08:10:43;;;;;;;1.53;0.70;;;;;;;11.97;77.14;95762.47;4954277;29;20586;-82
2021/05/23 08:13:10;;;;;;;0.60;0.60;;;;;;;11.95;77.36;95751.53;4953839;29;20228;-87
2021/05/23 08:15:37;;;;;;;0.60;0.60;;;;;;;12.09;77.50;95754.09;4954114;29;20246;-83
2021/05/23 08:18:03;;;;;;;0.60;0.60;;;;;;;12.21;77.48;95751.84;4955052;29;20235;-84
2021/05/23 08:20:29;;;;;;;0.87;0.70;;;;;;;12.21;76.86;95763.94;4947445;29;20244;-82
2021/05/23 08:22:56;;;;;;;0.67;0.63;;;;;;;12.34;77.39;95758.91;4936148;29;20225;-86
2021/05/23 08:25:22;;;;;;;0.80;0.80;;;;;;;12.34;76.42;95771.81;4935119;29;20201;-88
2021/05/23 08:27:48;;;;;;;0.60;0.60;;;;;;;12.25;77.21;95773.72;4949062;29;20208;-87
2021/05/23 08:30:14;;;;;;;1.03;0.70;;;;;;;12.38;77.15;95784.19;4955790;29;20220;-87
2021/05/23 08:32:41;;;;;;;0.80;0.60;;;;;;;12.44;76.92;95780.88;4953087;29;20260;-84
2021/05/23 08:35:12;;;;;;;0.93;0.70;;;;;;;12.49;77.06;95780.34;4954005;29;20205;-86
2021/05/23 08:37:38;;;;;;;0.70;0.60;;;;;;;12.35;74.83;95787.13;4954356;29;20204;-87
2021/05/23 08:40:06;;;;;;;0.60;0.60;;;;;;;12.20;76.98;95793.31;4953672;29;20205;-86
2021/05/23 08:42:32;;;;;;;0.63;0.63;;;;;;;12.08;78.53;95803.31;4953494;29;20231;-87
2021/05/23 08:44:58;;;;;;;0.70;0.70;;;;;;;11.92;77.57;95804.31;4953523;29;20268;-84
2021/05/23 08:47:26;;;;;;;0.80;0.80;;;;;;;11.94;77.02;95806.69;4952996;29;20197;-86
2021/05/23 08:49:53;;;;;;;1.73;0.70;;;;;;;12.02;78.05;95807.41;4952381;28;20228;-83
2021/05/23 08:52:20;;;;;;;1.63;0.80;;;;;;;12.15;78.86;95814.50;4957528;28;20241;-84
2021/05/23 08:54:48;;;;;;;0.70;0.70;;;;;;;12.21;77.14;95811.22;4957491;29;20212;-85
2021/05/23 08:57:17;;;;;;;1.07;0.97;;;;;;;12.27;78.36;95809.69;4958226;29;20240;-85
2021/05/23 08:59:43;;;;;;;1.27;0.90;;;;;;;12.37;78.49;95830.84;4959010;29;20709;-82
2021/05/23 09:02:09;;;;;;;1.20;0.90;;;;;;;12.24;80.81;95841.81;4958128;29;20225;-86
2021/05/23 09:04:46;;;;;;;1.03;0.80;;;;;;;12.01;75.82;95843.72;4958128;29;20197;-84
2021/05/23 09:07:15;;;;;;;0.60;0.60;;;;;;;11.90;73.79;95851.91;4957904;29;20204;-85
2021/05/23 09:09:42;;;;;;;2.57;0.77;;;;;;;11.53;73.67;95855.31;4958589;29;20282;-83
2021/05/23 09:12:10;;;;;;;2.30;0.60;;;;;;;11.38;72.28;95848.34;4957889;29;20243;-87
2021/05/23 09:14:38;;;;;;;1.47;0.87;;;;;;;11.19;73.85;95840.28;4959028;29;20209;-88
2021/05/23 09:17:05;;;;;;;2.27;1.10;;;;;;;11.16;74.37;95856.88;4958639;29;20219;-87
2021/05/23 09:19:39;;;;;;;1.97;0.90;;;;;;;10.99;74.70;95850.25;4958240;29;20364;-86
2021/05/23 09:22:19;;;;;;;0.70;0.70;;;;;;;10.90;75.65;95854.69;4957859;29;20965;-87
2021/05/23 09:24:51;;;;;;;1.33;0.90;;;;;;;11.02;75.61;95850.72;4957781;29;20196;-88
2021/05/23 09:27:19;;;;;;;1.80;0.83;;;;;;;11.11;75.15;95845.53;4965258;28;20188;-87
2021/05/23 09:29:46;;;;;;;0.70;0.70;;;;;;;11.20;75.27;95844.47;4958085;29;20225;-87
2021/05/23 09:32:17;;;;;;;1.20;0.80;;;;;;;11.14;78.33;95848.56;4957093;29;20305;-84
2021/05/23 09:34:47;;;;;;;0.80;0.80;;;;;;;11.18;75.88;95844.63;4957685;29;20617;-84
2021/05/23 09:37:14;;;;;;;1.23;0.87;;;;;;;11.31;75.85;95847.44;4958858;29;20205;-86
2021/05/23 09:39:41;;;;;;;1.00;0.93;;;;;;;11.36;75.60;95842.53;4957790;29;20205;-84
2021/05/23 09:42:11;;;;;;;1.77;0.80;;;;;;;11.44;76.19;95846.84;4946233;29;20249;-84
2021/05/23 09:44:38;;;;;;;0.97;0.77;;;;;;;11.46;75.67;95841.50;4939103;29;20206;-87
2021/05/23 09:47:09;;;;;;;1.33;0.90;;;;;;;11.41;77.69;95844.59;4938713;29;20237;-87
2021/05/23 09:49:41;;;;;;;0.80;0.80;;;;;;;11.48;76.09;95845.53;4939749;29;20854;-85
2021/05/23 09:52:08;;;;;;;1.20;0.90;;;;;;;11.53;74.64;95856.13;4957554;29;20233;-88
2021/05/23 09:54:44;;;;;;;0.83;0.70;;;;;;;11.53;75.90;95848.38;4957310;29;20209;-88
2021/05/23 09:57:13;;;;;;;1.40;1.00;;;;;;;11.55;76.01;95850.75;4957175;29;20676;-87
2021/05/23 09:59:39;;;;;;;1.40;1.13;;;;;;;11.55;76.93;95855.91;4956884;29;20213;-86
2021/05/23 10:02:06;;;;;;;1.40;0.90;;;;;;;11.91;75.34;95858.66;4955968;28;20252;-84
2021/05/23 10:04:34;;;;;;;1.87;1.03;;;;;;;12.09;75.73;95859.91;4957519;29;20200;-82
2021/05/23 10:07:01;;;;;;;1.37;0.90;;;;;;;12.27;75.80;95867.28;4957270;29;20212;-87
2021/05/23 10:09:28;;;;;;;1.23;0.80;;;;;;;12.44;75.80;95860.13;4957320;29;20236;-85
2021/05/23 10:11:54;;;;;;;1.37;0.90;;;;;;;12.55;74.63;95857.06;4955929;29;20205;-84
2021/05/23 10:14:25;;;;;;;1.87;0.70;;;;;;;12.60;76.01;95853.97;4957172;29;20212;-85
2021/05/23 10:16:52;;;;;;;0.90;0.90;;;;;;;12.70;77.09;95862.22;4957148;29;20257;-88
2021/05/23 10:19:21;;;;;;;1.37;0.90;;;;;;;12.83;75.01;95856.38;4956874;29;20208;-88
2021/05/23 10:21:48;;;;;;;1.33;0.97;;;;;;;12.72;78.01;95855.06;4956496;29;20196;-89
2021/05/23 10:24:22;;;;;;;1.13;1.00;;;;;;;12.86;77.54;95853.44;4956952;29;20843;-88
2021/05/23 10:26:53;;;;;;;1.00;0.90;;;;;;;12.83;79.49;95853.81;4962280;28;20218;-88
2021/05/23 10:29:19;;;;;;;1.03;0.90;;;;;;;12.97;80.45;95850.34;4956812;28;20209;-85
2021/05/23 10:31:47;;;;;;;1.33;1.10;;;;;;;13.60;75.11;95846.94;4954952;29;20224;-84
2021/05/23 10:34:16;;;;;;;1.07;0.97;;;;;;;14.20;72.04;95848.09;4956619;29;20215;-87
2021/05/23 10:36:43;;;;;;;1.93;1.00;;;;;;;14.56;68.03;95847.88;4956492;29;20205;-86
2021/05/23 10:39:11;;;;;;;1.20;1.10;;;;;;;14.95;70.62;95848.97;4955704;29;20291;-85
2021/05/23 10:41:38;;;;;;;2.03;1.23;;;;;;;15.15;70.98;95844.59;4955851;29;20203;-85
2021/05/23 10:44:07;;;;;;;4.50;1.20;;;;;;;15.37;69.68;95843.41;4955754;29;20238;-84
2021/05/23 10:46:44;;;;;;;1.37;0.90;;;;;;;15.54;67.64;95834.22;4956127;29;20212;-87
2021/05/23 10:49:11;;;;;;;0.80;0.80;;;;;;;15.69;63.45;95838.44;4956326;29;20244;-83
2021/05/23 10:51:37;;;;;;;1.10;0.80;;;;;;;15.80;63.51;95828.22;4959013;28;20224;-83
2021/05/23 10:54:13;;;;;;;2.40;1.10;;;;;;;15.39;65.21;95825.84;4956727;29;20459;-87
2021/05/23 10:56:39;;;;;;;1.00;0.90;;;;;;;15.25;65.30;95818.25;4956007;29;20255;-86
2021/05/23 10:59:05;;;;;;;1.80;1.07;;;;;;;15.41;64.00;95828.22;4955850;29;20204;-84
2021/05/23 11:01:39;;;;;;;1.23;0.80;;;;;;;15.50;62.67;95837.41;4955641;29;20209;-84
2021/05/23 11:04:11;;;;;;;1.00;0.90;;;;;;;15.41;63.28;95829.03;4955484;29;20612;-84
2021/05/23 11:06:38;;;;;;;0.73;0.73;;;;;;;14.99;61.91;95829.44;4956060;29;20224;-85
2021/05/23 11:09:12;;;;;;;0.83;0.83;;;;;;;14.78;61.90;95825.19;4955132;29;20204;-86
2021/05/23 11:11:39;;;;;;;2.33;1.10;;;;;;;15.08;61.37;95821.25;4954975;29;20235;-85
2021/05/23 11:14:16;;;;;;;1.33;0.90;;;;;;;15.05;63.62;95820.84;4955616;28;20643;-86
2021/05/23 11:16:51;;;;;;;0.93;0.80;;;;;;;15.39;63.54;95806.91;4955681;29;20209;-85
2021/05/23 11:19:19;;;;;;;1.87;1.10;;;;;;;15.68;62.54;95813.47;4955236;29;20200;-85
2021/05/23 11:21:46;;;;;;;0.70;0.70;;;;;;;15.88;60.93;95822.03;4955300;29;20653;-83
2021/05/23 11:24:12;;;;;;;1.60;0.90;;;;;;;16.02;58.76;95802.78;4955083;29;20256;-85
2021/05/23 11:26:39;;;;;;;0.90;0.90;;;;;;;16.28;59.78;95804.50;4959170;28;20203;-84
2021/05/23 11:29:07;;;;;;;1.47;0.90;;;;;;;16.47;58.79;95793.22;4957280;28;20197;-87
2021/05/23 11:31:34;;;;;;;1.10;0.90;;;;;;;16.71;58.61;95793.53;4954740;29;20224;-85
2021/05/23 11:34:02;;;;;;;1.75;0.93;;;;;;;16.80;57.63;95784.47;4954053;29;20623;-88
2021/05/23 11:36:34;;;;;;;1.95;1.20;;;;;;;17.02;60.70;95790.13;4955141;29;20228;-84